Neder Vindinge, Denmark
Current Conditions -  °F | °C
As of 6:20 AM on Thursday 27 Nov 2014 (Local Time) from EKAV Reporting Station
Broken Clouds Broken Clouds  
Wind Chill: 38°   Ceiling: 1900
Heat Index: 45°   Visibility: 6mi
Dew Point: 39°   Wind: 15mph
Humidity: 81%   Direction: 140°SE
Pressure: 30.12"   Gusts: NA
Location:  55.03°N, 11.88°E
Report Text: EKAV 270520Z AUTO 14013KT 9999NDV FEW012/// BKN019///07/04 Q1020
Loading
Personal Weather Stations






























Interactive Weather Map New forecast layout! Learn more

10-Day Weather Forecast

Advertisements
Track Severe Weather on mobile